Latest Weather Observations for Evans Head

IDN60801

Issued at 9:33 pm EST Wednesday 21 April 2021 (issued every 10 minutes, with the page automatically refreshed every 10 minutes)

About weather observations | Map of weather stations | Latest weather observations for NSW | Other Formats
Station Details ID: 058212 Name: EVANS HEAD RAAF BOMBING RANGE AWS Lat: -29.18 Lon: 153.40 Height: 62.5 m
Data from the previous 72 hours. | See also: Recent months at Evans Head
Date/Time
EST
Temp
°C
App
Temp
°C
Dew
Point
°C
Rel
Hum
%
Delta-T
°C
Wind Press
QNH
hPa
Press
MSL
hPa
Rain since
9am
mm
Dir  Spd
km/h
Gust
km/h
Spd
kts
Gust
kts
21/09:30pm 19.2 16.5 13.6 70 3.2 SSE 20 26 11 14 1015.3 1015.0 0.0
21/09:00pm 19.3 16.7 13.9 71 3.1 SSE 20 28 11 15 1015.0 1014.7 0.0
21/08:30pm 19.6 16.3 14.0 70 3.2 SSE 24 33 13 18 1014.8 1014.5 0.0
21/08:00pm 19.9 16.5 14.7 72 3.0 SSE 26 35 14 19 1014.5 1014.2 0.0
21/07:30pm 20.3 15.8 14.9 71 3.2 SSE 32 43 17 23 1013.9 1013.6 0.0
21/07:11pm 20.2 17.7 15.2 73 3.0 SSE 22 41 12 22 1013.5 1013.2 0.0
21/07:00pm 19.7 17.8 12.9 65 3.9 S 15 20 8 11 1013.3 1013.0 0.0
21/06:30pm 21.5 17.7 5.8 36 7.9 SSW 15 24 8 13 1012.3 1012.1 0.0
21/06:00pm 22.0 20.0 6.3 36 8.0 WNW 6 7 3 4 1011.6 1011.4 0.0
21/05:30pm 22.3 22.4 10.1 46 6.7 CALM 0 0 0 0 1011.0 1010.8 0.0
21/05:00pm 22.6 22.5 9.4 43 7.1 CALM 0 6 0 3 1010.7 1010.5 0.0
21/04:30pm 23.6 23.1 12.0 48 6.6 SE 6 9 3 5 1010.3 1010.1 0.0
21/04:00pm 24.8 23.5 9.9 39 8.2 S 7 13 4 7 1009.9 1009.7 0.0
21/03:30pm 27.0 23.3 4.7 24 11.4 WNW 13 20 7 11 1009.8 1009.6 0.0
21/03:00pm 27.3 23.1 5.6 25 11.3 WNW 17 30 9 16 1009.6 1009.4 0.0
21/02:30pm 27.0 24.3 7.5 29 10.4 WSW 11 19 6 10 1009.5 1009.3 0.0
21/02:00pm 27.5 25.4 8.4 30 10.4 W 9 20 5 11 1009.7 1009.5 0.0
21/01:30pm 27.4 24.2 8.3 30 10.4 WNW 15 24 8 13 1009.9 1009.7 0.0
21/01:00pm 26.7 22.7 6.7 28 10.5 WNW 17 30 9 16 1010.3 1010.1 0.0
21/12:30pm 26.5 22.8 6.5 28 10.5 WNW 15 28 8 15 1010.7 1010.5 0.0
21/12:00pm 26.2 23.3 8.2 32 9.7 WNW 13 24 7 13 1011.1 1010.9 0.0
21/11:30am 26.5 23.8 10.2 36 9.1 NW 15 28 8 15 1011.5 1011.3 0.0
21/11:00am 25.5 23.0 9.7 37 8.7 NW 13 24 7 13 1012.1 1011.9 0.0
21/10:30am 25.0 22.8 10.8 41 8.0 NW 13 22 7 12 1012.7 1012.5 0.0
21/10:00am 24.9 23.5 12.2 45 7.3 NW 11 20 6 11 1012.9 1012.7 0.0
21/09:30am 22.9 20.6 10.3 45 6.9 NW 13 22 7 12 1013.1 1012.9 0.0
21/09:00am 21.8 19.8 10.3 48 6.3 NW 11 19 6 10 1013.4 1013.1 0.0
21/08:30am 21.7 20.8 10.8 50 6.0 NW 6 17 3 9 1013.1 1012.9 0.0
21/08:00am 19.6 19.4 10.3 55 5.0 NNW 2 6 1 3 1013.5 1013.2 0.0
21/07:30am 18.0 17.1 9.4 57 4.5 N 4 7 2 4 1013.3 1013.0 0.0
21/07:00am 15.9 14.3 10.2 69 3.0 N 9 11 5 6 1012.8 1012.6 0.0
21/06:30am 15.1 13.0 9.9 71 2.7 NW 11 13 6 7 1012.7 1012.5 0.0
21/06:00am 15.6 13.9 9.9 69 3.0 NNW 9 11 5 6 1012.6 1012.4 0.0
21/05:30am 17.4 15.0 10.1 62 3.9 WNW 13 17 7 9 1012.6 1012.4 0.0
21/05:00am 17.6 16.4 11.6 68 3.3 NW 9 13 5 7 1012.3 1012.1 0.0
21/04:30am 17.2 16.3 11.2 68 3.3 NW 7 15 4 8 1012.0 1011.8 0.0
21/04:00am 17.8 17.2 11.8 68 3.3 W 6 7 3 4 1011.9 1011.7 0.0
21/03:30am 18.0 17.4 11.8 67 3.4 WNW 6 7 3 4 1011.9 1011.7 0.0
21/03:00am 16.2 15.4 11.8 75 2.4 NNW 7 13 4 7 1011.9 1011.7 0.0
21/02:30am 15.1 13.9 11.7 80 1.8 NNW 9 19 5 10 1012.0 1011.8 0.0
21/02:00am 15.6 14.0 11.4 76 2.3 NNW 11 15 6 8 1012.4 1012.2 0.0
21/01:30am 15.5 13.8 11.1 75 2.4 NNW 11 19 6 10 1012.8 1012.6 0.0
21/01:00am 15.5 13.5 10.3 71 2.7 NNW 11 17 6 9 1013.0 1012.8 0.0
21/12:30am 15.0 12.8 7.8 62 3.6 NNW 9 15 5 8 1013.4 1013.1 0.0
21/12:00am 15.8 13.7 6.5 54 4.5 NNW 7 11 4 6 1013.7 1013.4 0.0
 
Date/Time
EST
Temp
°C
App
Temp
°C
Dew
Point
°C
Rel
Hum
%
Delta-T
°C
Wind Press
QNH
hPa
Press
MSL
hPa
Rain since
9am
mm
Dir  Spd
km/h
Gust
km/h
Spd
kts
Gust
kts
20/11:30pm 15.6 12.6 7.9 60 3.9 NNW 13 19 7 10 1013.8 1013.5 0.0
20/11:00pm 15.0 12.2 8.7 66 3.2 NNW 13 19 7 10 1014.0 1013.7 0.0
20/10:30pm 15.5 13.1 8.7 64 3.5 NNW 11 17 6 9 1014.2 1013.9 0.0
20/10:00pm 16.3 13.2 9.0 62 3.8 NNW 15 20 8 11 1014.2 1013.9 0.0
20/09:30pm 16.6 14.0 9.5 63 3.7 NNW 13 20 7 11 1014.4 1014.1 0.0
20/09:00pm 16.3 14.1 10.8 70 2.9 NNW 13 20 7 11 1014.5 1014.2 0.0
20/08:30pm 16.0 14.7 12.4 79 2.0 NNW 11 17 6 9 1014.2 1013.9 0.0
20/08:00pm 16.4 14.4 12.8 79 2.0 NNW 15 19 8 10 1014.1 1013.8 0.0
20/07:30pm 16.4 15.1 12.6 78 2.1 NNW 11 13 6 7 1013.9 1013.6 0.0
20/07:00pm 17.3 16.1 12.8 75 2.5 N 11 13 6 7 1013.7 1013.4 0.0
20/06:30pm 17.9 17.0 12.6 71 3.0 N 9 11 5 6 1013.4 1013.1 0.0
20/06:00pm 19.1 18.1 12.4 65 3.7 N 9 11 5 6 1013.1 1012.9 0.0
20/05:30pm 21.0 20.3 13.2 61 4.5 N 9 11 5 6 1013.1 1012.9 0.0
20/05:00pm 22.2 21.7 12.7 55 5.4 N 7 11 4 6 1012.9 1012.7 0.0
20/04:30pm 24.2 23.3 11.5 45 7.2 N 7 15 4 8 1013.0 1012.8 0.0
20/04:00pm 26.8 25.8 10.9 37 9.0 N 7 13 4 7 1013.1 1012.9 0.0
20/03:30pm 27.0 25.2 10.7 36 9.2 NNW 11 17 6 9 1013.5 1013.2 0.0
20/03:00pm 27.0 24.9 9.8 34 9.6 NNW 11 19 6 10 1013.6 1013.3 0.0
20/02:30pm 26.8 24.6 10.9 37 9.0 NW 13 20 7 11 1013.7 1013.4 0.0
20/02:00pm 27.4 25.6 12.2 39 8.8 NNW 13 20 7 11 1013.8 1013.5 0.0
20/01:30pm 26.9 25.0 10.6 36 9.2 NW 11 20 6 11 1014.0 1013.7 0.0
20/01:00pm 26.5 24.5 11.4 39 8.6 NW 13 20 7 11 1014.5 1014.2 0.0
20/12:30pm 27.3 25.0 11.7 37 9.0 NNW 15 24 8 13 1015.0 1014.7 0.0
20/12:00pm 26.9 24.8 12.5 40 8.4 NNW 15 24 8 13 1015.7 1015.5 0.0
20/11:30am 26.3 24.6 14.7 48 7.0 NNW 17 32 9 17 1016.1 1015.9 0.0
20/11:00am 25.9 24.7 15.0 51 6.6 NNW 15 26 8 14 1016.3 1016.1 0.0
20/10:30am 24.7 23.0 14.8 54 5.9 NNW 17 24 9 13 1016.6 1016.4 0.0
20/10:00am 23.9 22.3 15.1 58 5.3 NNW 17 24 9 13 1017.3 1017.1 0.0
20/09:30am 23.7 22.7 15.7 61 4.8 NNW 15 22 8 12 1017.4 1017.2 0.0
20/09:00am 22.5 22.6 14.4 60 4.8 NNW 7 11 4 6 1017.6 1017.4 0.0
20/08:30am 21.4 22.1 15.5 69 3.5 N 6 9 3 5 1017.8 1017.6 0.0
20/08:00am 19.2 19.6 15.3 78 2.3 NNW 7 11 4 6 1017.8 1017.6 0.0
20/07:30am 16.6 16.5 13.9 84 1.5 NNW 7 11 4 6 1017.7 1017.5 0.0
20/07:00am 15.2 14.7 13.7 91 0.8 NW 9 11 5 6 1017.4 1017.2 0.0
20/06:30am 14.0 12.8 12.7 92 0.7 NW 11 15 6 8 1017.2 1017.0 0.0
20/06:00am 13.8 12.9 12.5 92 0.7 NW 9 15 5 8 1017.3 1017.1 0.0
20/05:30am 13.9 12.6 12.6 92 0.7 NW 11 15 6 8 1017.0 1016.8 0.0
20/05:00am 14.6 13.5 13.1 91 0.8 WNW 11 13 6 7 1016.7 1016.5 0.0
20/04:30am 14.7 14.1 13.4 92 0.7 WNW 9 15 5 8 1016.4 1016.2 0.0
20/04:00am 14.6 13.6 13.5 93 0.6 NW 11 17 6 9 1016.2 1016.0 0.0
20/03:30am 14.5 13.5 13.4 93 0.6 NNW 11 15 6 8 1016.3 1016.1 0.0
20/03:00am 14.8 14.0 14.0 95 0.5 NW 11 17 6 9 1016.3 1016.1 0.0
20/02:30am 14.6 14.5 13.8 95 0.4 NW 7 11 4 6 1016.6 1016.4 0.0
20/02:00am 14.3 13.7 13.5 95 0.4 NNW 9 11 5 6 1016.8 1016.6 0.0
20/01:30am 14.4 13.8 13.6 95 0.4 NNW 9 13 5 7 1016.9 1016.7 0.0
20/01:00am 14.4 13.8 13.4 94 0.6 NNW 9 11 5 6 1017.1 1016.9 0.0
20/12:30am 14.6 14.0 13.6 94 0.6 NNW 9 13 5 7 1017.3 1017.1 0.0
20/12:00am 14.7 14.2 13.7 94 0.6 NNW 9 11 5 6 1017.4 1017.2 0.0
 
Date/Time
EST
Temp
°C
App
Temp
°C
Dew
Point
°C
Rel
Hum
%
Delta-T
°C
Wind Press
QNH
hPa
Press
MSL
hPa
Rain since
9am
mm
Dir  Spd
km/h
Gust
km/h
Spd
kts
Gust
kts
19/11:30pm 14.8 14.3 13.7 93 0.6 NNW 9 11 5 6 1017.6 1017.4 0.0
19/11:00pm 15.0 14.5 13.7 92 0.7 NNW 9 11 5 6 1017.5 1017.3 0.0
19/10:30pm 15.3 14.8 13.8 91 0.8 N 9 13 5 7 1017.7 1017.5 0.0
19/10:00pm 15.7 14.9 13.9 89 1.0 NNW 11 13 6 7 1017.8 1017.6 0.0
19/09:30pm 16.5 16.1 14.0 85 1.4 NNW 9 13 5 7 1017.8 1017.6 0.0
19/09:00pm 17.5 17.0 13.8 79 2.1 NNE 9 11 5 6 1017.7 1017.5 0.0
19/08:30pm 17.8 17.4 14.1 79 2.1 NNE 9 11 5 6 1017.7 1017.5 0.0
19/08:00pm 18.3 18.0 14.4 78 2.2 NNE 9 13 5 7 1017.7 1017.5 0.0
19/07:30pm 18.4 18.1 14.3 77 2.4 NNE 9 13 5 7 1017.5 1017.3 0.0
19/07:00pm 18.6 18.2 14.1 75 2.6 NE 9 13 5 7 1017.1 1016.9 0.0
19/06:30pm 18.4 17.9 13.9 75 2.6 NE 9 11 5 6 1016.8 1016.6 0.0
19/06:00pm 18.9 18.5 14.0 73 2.8 ENE 9 13 5 7 1016.6 1016.4 0.0
19/05:30pm 19.0 18.5 13.8 72 3.0 ENE 9 13 5 7 1016.4 1016.2 0.0
19/05:00pm 19.4 19.3 14.0 71 3.1 ESE 7 11 4 6 1016.3 1016.1 0.0
19/04:30pm 20.1 19.4 14.2 69 3.4 SE 11 15 6 8 1016.3 1016.1 0.0
19/04:00pm 20.8 19.8 14.5 67 3.7 SE 13 17 7 9 1016.3 1016.1 0.0
19/03:30pm 21.2 19.9 14.8 67 3.8 SE 15 20 8 11 1016.2 1016.0 0.0
19/03:00pm 21.5 19.5 13.9 62 4.4 SE 17 22 9 12 1016.2 1016.0 0.0
19/02:30pm 21.9 19.9 14.0 61 4.6 SE 17 24 9 13 1016.4 1016.2 0.0
19/02:00pm 22.0 19.7 13.1 57 5.1 SSE 17 24 9 13 1016.4 1016.2 0.0
19/01:30pm 22.2 19.9 14.1 60 4.7 SSE 19 26 10 14 1016.5 1016.3 0.0
19/01:00pm 22.3 20.3 13.9 59 4.9 SSE 17 24 9 13 1016.8 1016.6 0.0
19/12:30pm 22.0 19.6 13.9 60 4.7 SSE 19 26 10 14 1017.2 1017.0 0.0
19/12:00pm 22.1 20.0 13.7 59 4.9 SSE 17 24 9 13 1017.6 1017.4 0.0
19/11:30am 21.5 19.3 13.2 59 4.8 S 17 24 9 13 1018.0 1017.8 0.0
19/11:00am 21.6 19.0 13.8 61 4.5 S 20 26 11 14 1018.2 1018.0 0.0
19/10:30am 21.2 18.5 12.9 59 4.7 S 19 28 10 15 1018.4 1018.2 0.0
19/10:00am 20.8 17.9 12.2 58 4.8 SSW 19 26 10 14 1018.8 1018.6 0.0
19/09:30am 20.4 18.8 12.9 62 4.3 SW 13 20 7 11 1018.8 1018.6 0.0
19/09:00am 19.6 18.4 12.8 65 3.8 SW 11 19 6 10 1019.0 1018.8 0.0
19/08:30am 18.2 15.6 12.0 67 3.4 WSW 17 22 9 12 1019.0 1018.8 0.0
19/08:00am 17.5 15.1 11.3 67 3.4 WSW 15 22 8 12 1018.9 1018.7 0.0
19/07:30am 16.8 14.4 11.3 70 3.0 WSW 15 20 8 11 1018.8 1018.6 0.0
19/07:00am 15.1 12.9 10.9 76 2.2 WSW 13 19 7 10 1018.4 1018.2 0.0
19/06:30am 15.0 12.4 10.6 75 2.3 W 15 20 8 11 1018.0 1017.8 0.0
19/06:00am 15.2 12.1 10.4 73 2.5 WSW 17 22 9 12 1018.0 1017.8 0.0
19/05:30am 15.3 12.2 10.3 72 2.6 WSW 17 22 9 12 1017.7 1017.5 0.0
19/05:00am 15.2 12.1 10.2 72 2.6 WSW 17 22 9 12 1017.5 1017.3 0.0
19/04:30am 15.2 12.5 10.2 72 2.6 WSW 15 20 8 11 1017.3 1017.1 0.0
19/04:00am 15.7 12.6 10.2 70 2.9 WSW 17 22 9 12 1017.3 1017.1 0.0
19/03:30am 15.4 11.9 10.2 71 2.7 WSW 19 24 10 13 1017.1 1016.9 0.0
19/03:00am 15.6 12.5 10.4 71 2.7 WSW 17 20 9 11 1017.1 1016.9 0.0
19/02:30am 15.8 12.8 10.6 71 2.8 WSW 17 22 9 12 1017.3 1017.1 0.0
19/02:00am 15.6 12.2 10.6 72 2.6 WSW 19 24 10 13 1017.6 1017.4 0.0
19/01:30am 15.6 12.3 10.8 73 2.6 WSW 19 26 10 14 1017.8 1017.6 0.0
19/01:00am 15.8 12.5 11.0 73 2.6 WSW 19 26 10 14 1018.0 1017.8 0.0
19/12:30am 15.8 13.0 11.2 74 2.5 WSW 17 22 9 12 1018.1 1017.9 0.0
19/12:00am 15.6 12.8 11.2 75 2.4 WSW 17 20 9 11 1018.1 1017.9 0.0
 
Date/Time
EST
Temp
°C
App
Temp
°C
Dew
Point
°C
Rel
Hum
%
Delta-T
°C
Wind Press
QNH
hPa
Press
MSL
hPa
Rain since
9am
mm
Dir  Spd
km/h
Gust
km/h
Spd
kts
Gust
kts
18/11:30pm 15.9 13.1 11.5 75 2.4 WSW 17 24 9 13 1018.2 1018.0 0.0
18/11:00pm 16.1 13.0 11.5 74 2.5 SW 19 26 10 14 1018.3 1018.1 0.0
18/10:30pm 16.3 13.3 11.9 75 2.4 SW 19 24 10 13 1018.5 1018.3 0.0
18/10:00pm 16.3 13.7 12.1 76 2.3 SW 17 24 9 13 1018.6 1018.4 0.0

Other formats

Comma delimited format used in spreadsheet applications
http://www.bom.gov.au/fwo/IDN60801/IDN60801.94598.axf

JavaScript Object Notation format (JSON) in row-major order
http://www.bom.gov.au/fwo/IDN60801/IDN60801.94598.json

Data quality

Most of these data are generated automatically and are frequently updated. Quality checks on data are not normally performed. It is possible for incorrect values to appear. Refer to information at About Latest Weather Observations and please check the disclaimer before using these data.